Marble, Minnesota
Current Conditions -  °F | °C
As of 8:35 AM on Sunday 23 Nov 2014 (Local Time) from KGPZ Reporting Station
Overcast Overcast  
Wind Chill: 36°   Ceiling: 300
Heat Index: 36°   Visibility: 0.5mi
Dew Point: 32°   Wind: 3mph
Humidity: 87%   Direction: 260°W
Pressure: 29.42"   Gusts: NA
Location:  47.32°N, 93.3°W
Report Text: KGPZ 231435Z AUTO 26003KT 1/2SM OVC003 02/00 A2942 RMK AO1
Loading
Personal Weather Stations






























Interactive Weather Map New forecast layout! Learn more

10-Day Weather Forecast

Advertisements
Track Severe Weather on mobile